Airfield :
LOGIN :

Register | Disclaimer

   EN    FR    IT 

 










Legend :    VFR   Marginal VFR   IFR   Intensive IFR   Very Intensive IFR
Visi :
Ceiling :
>= 8 km
>= 3000ft
5 to 8 km
1000 to 3000 ft
1500m to 5 km
500 to 1000 ft
800 to 1500m
200 to 500 ft
< 800m
< 200 ft
Symbols :   Thunderstorms  Fog  Heavy snow  Heavy precipitations  Wind > 20 kt
SIGMETs :     Misc.  Thunderstorms  Icing  Turbulence  Mountain Waves  Volcanic Ashes







- Airport Elevation : 7 ft
- IATA code : VCE


LIPZ - Marco Polo Int. Venezia

CURRENT METAR :
  • 212220Z 01011KT 9999 SCT067 20/12 Q1012 NOSIG

EXPIRED METARs :
  • 212150Z 01004KT 9999 FEW068 21/12 Q1012 NOSIG
  • 212120Z 36006KT CAVOK 21/12 Q1012 NOSIG
  • 212050Z 30003KT 270V340 CAVOK 22/13 Q1012 NOSIG
  • 212020Z VRB02KT CAVOK 22/11 Q1012 NOSIG
  • 211950Z 26003KT 230V310 CAVOK 22/13 Q1012 NOSIG

TAF TAF LIPZ
Valid from the 21 at 18:00 until the 23 at 00:00 UTC


211700Z 2118/2224 10010KT 9999 SCT040
BECMG 2118/2120 03010KT
TEMPO 2203/2208 SHRA
BECMG 2210/2212 12010KT
TEMPO 2212/2218 4000 SHRA
BECMG 2218/2221 03010KT
No reported NOTAMs for that airfield.
1 SIGMET reported for the Milano FIR (LIMM) :
 
Embedded thunderstorms
LIMM SIGMET 3 VALID 212033/212233 LIIP
LIMM MILANO FIR EMBD TS FCST S OF LINE N4404 E00732 - N4340 E01114 TOP ABV FL240 MOV NNW NC=



MET'MAP, your aeronautical weather chart ! - Copyright ORBIFLY December 2007 - Disclaimer

ORBIFLY MET'MAP TEAM :

Programming & Development : Alexandra Zaïnal
Concept & Development : Baudouin d'Aumeries
Co-Development & Prog : Marc-Olivier Méhu
Technical & hardware support : Manuel Goepfert

Contact : metmap@orbifly.com




SOURCES & CREDITS :

   NOAA